sensor_id;sensor_type;location;lat;lon;timestamp;pressure;altitude;pressure_sealevel;temperature;humidity
65276;BME280;51875;49.994;14.052;2023-04-09T00:00:45;99130.69;;;1.46;100.00
65276;BME280;51875;49.994;14.052;2023-04-09T00:02:21;99135.56;;;1.32;100.00
65276;BME280;51875;49.994;14.052;2023-04-09T00:03:37;99131.66;;;1.51;100.00
65276;BME280;51875;49.994;14.052;2023-04-09T00:04:53;99135.81;;;1.44;100.00
65276;BME280;51875;49.994;14.052;2023-04-09T00:06:10;99134.59;;;1.69;100.00
65276;BME280;51875;49.994;14.052;2023-04-09T00:07:25;99129.13;;;1.54;100.00
65276;BME280;51875;49.994;14.052;2023-04-09T00:08:41;99134.72;;;1.77;100.00
65276;BME280;51875;49.994;14.052;2023-04-09T00:09:57;99127.88;;;1.78;100.00
65276;BME280;51875;49.994;14.052;2023-04-09T00:11:12;99129.75;;;1.88;100.00
65276;BME280;51875;49.994;14.052;2023-04-09T00:12:28;99131.53;;;1.91;100.00
65276;BME280;51875;49.994;14.052;2023-04-09T00:13:44;99129.88;;;1.94;100.00
65276;BME280;51875;49.994;14.052;2023-04-09T00:15:00;99130.69;;;1.92;100.00
65276;BME280;51875;49.994;14.052;2023-04-09T00:16:15;99128.00;;;1.86;100.00
65276;BME280;51875;49.994;14.052;2023-04-09T00:17:31;99133.31;;;1.93;100.00
65276;BME280;51875;49.994;14.052;2023-04-09T00:18:46;99122.81;;;1.84;100.00
65276;BME280;51875;49.994;14.052;2023-04-09T00:20:02;99125.94;;;1.67;100.00
65276;BME280;51875;49.994;14.052;2023-04-09T00:21:18;99130.88;;;1.55;100.00
65276;BME280;51875;49.994;14.052;2023-04-09T00:22:35;99135.94;;;1.49;100.00
65276;BME280;51875;49.994;14.052;2023-04-09T00:23:50;99133.75;;;1.71;100.00
65276;BME280;51875;49.994;14.052;2023-04-09T00:25:06;99126.84;;;1.68;100.00
65276;BME280;51875;49.994;14.052;2023-04-09T00:26:22;99126.66;;;1.59;100.00
65276;BME280;51875;49.994;14.052;2023-04-09T00:27:38;99129.78;;;1.44;100.00
65276;BME280;51875;49.994;14.052;2023-04-09T00:28:53;99126.50;;;1.52;100.00
65276;BME280;51875;49.994;14.052;2023-04-09T00:30:09;99132.44;;;1.47;100.00
65276;BME280;51875;49.994;14.052;2023-04-09T00:31:25;99129.25;;;1.17;100.00
65276;BME280;51875;49.994;14.052;2023-04-09T00:32:41;99133.34;;;1.50;100.00
65276;BME280;51875;49.994;14.052;2023-04-09T00:33:57;99130.22;;;1.67;100.00
65276;BME280;51875;49.994;14.052;2023-04-09T00:35:12;99139.00;;;1.75;100.00
65276;BME280;51875;49.994;14.052;2023-04-09T00:36:28;99137.22;;;1.73;100.00
65276;BME280;51875;49.994;14.052;2023-04-09T00:37:43;99133.13;;;1.84;100.00
65276;BME280;51875;49.994;14.052;2023-04-09T00:38:59;99134.06;;;1.88;100.00
65276;BME280;51875;49.994;14.052;2023-04-09T00:40:15;99138.47;;;1.93;100.00
65276;BME280;51875;49.994;14.052;2023-04-09T00:41:30;99132.59;;;2.02;100.00
65276;BME280;51875;49.994;14.052;2023-04-09T00:42:46;99134.44;;;2.09;100.00
65276;BME280;51875;49.994;14.052;2023-04-09T00:44:02;99131.88;;;2.11;100.00
65276;BME280;51875;49.994;14.052;2023-04-09T00:45:17;99128.63;;;2.21;100.00
65276;BME280;51875;49.994;14.052;2023-04-09T00:46:33;99135.69;;;2.33;100.00
65276;BME280;51875;49.994;14.052;2023-04-09T00:47:49;99133.03;;;2.29;100.00
65276;BME280;51875;49.994;14.052;2023-04-09T00:49:04;99133.88;;;2.26;100.00
65276;BME280;51875;49.994;14.052;2023-04-09T00:50:20;99132.13;;;2.25;100.00
65276;BME280;51875;49.994;14.052;2023-04-09T00:51:36;99124.63;;;2.40;100.00
65276;BME280;51875;49.994;14.052;2023-04-09T00:52:52;99126.50;;;2.51;100.00
65276;BME280;51875;49.994;14.052;2023-04-09T00:54:08;99129.06;;;2.49;100.00
65276;BME280;51875;49.994;14.052;2023-04-09T00:55:24;99131.00;;;2.64;100.00
65276;BME280;51875;49.994;14.052;2023-04-09T00:56:41;99127.72;;;2.73;100.00
65276;BME280;51875;49.994;14.052;2023-04-09T00:57:56;99126.72;;;2.65;100.00
65276;BME280;51875;49.994;14.052;2023-04-09T00:59:12;99126.66;;;2.59;100.00
65276;BME280;51875;49.994;14.052;2023-04-09T01:00:28;99123.25;;;2.64;100.00
65276;BME280;51875;49.994;14.052;2023-04-09T01:01:43;99123.19;;;2.58;100.00
65276;BME280;51875;49.994;14.052;2023-04-09T01:02:59;99126.53;;;2.52;100.00
65276;BME280;51875;49.994;14.052;2023-04-09T01:04:15;99129.22;;;2.60;100.00
65276;BME280;51875;49.994;14.052;2023-04-09T01:05:39;99132.69;;;2.61;100.00
65276;BME280;51875;49.994;14.052;2023-04-09T01:07:05;99131.28;;;2.26;100.00
65276;BME280;51875;49.994;14.052;2023-04-09T01:08:50;99137.41;;;2.31;100.00
65276;BME280;51875;49.994;14.052;2023-04-09T01:10:51;99128.91;;;2.38;100.00
65276;BME280;51875;49.994;14.052;2023-04-09T01:13:30;99129.97;;;1.99;100.00
65276;BME280;51875;49.994;14.052;2023-04-09T01:14:56;99128.91;;;2.38;100.00
65276;BME280;51875;49.994;14.052;2023-04-09T01:16:15;99121.16;;;2.40;100.00
65276;BME280;51875;49.994;14.052;2023-04-09T01:17:37;99112.75;;;2.53;100.00
65276;BME280;51875;49.994;14.052;2023-04-09T01:21:02;99114.69;;;2.65;100.00
65276;BME280;51875;49.994;14.052;2023-04-09T01:22:46;99111.19;;;2.63;100.00
65276;BME280;51875;49.994;14.052;2023-04-09T01:27:07;99125.09;;;2.72;100.00
65276;BME280;51875;49.994;14.052;2023-04-09T01:28:30;99120.06;;;2.81;100.00
65276;BME280;51875;49.994;14.052;2023-04-09T01:29:50;99116.72;;;2.88;100.00
65276;BME280;51875;49.994;14.052;2023-04-09T01:31:10;99125.41;;;2.93;100.00
65276;BME280;51875;49.994;14.052;2023-04-09T01:32:27;99125.28;;;2.86;100.00
65276;BME280;51875;49.994;14.052;2023-04-09T01:33:46;99128.53;;;2.71;100.00
65276;BME280;51875;49.994;14.052;2023-04-09T01:35:03;99123.25;;;2.64;100.00
65276;BME280;51875;49.994;14.052;2023-04-09T01:36:21;99126.09;;;2.80;100.00
65276;BME280;51875;49.994;14.052;2023-04-09T01:37:38;99129.38;;;2.70;100.00
65276;BME280;51875;49.994;14.052;2023-04-09T01:38:55;99130.34;;;2.76;100.00
65276;BME280;51875;49.994;14.052;2023-04-09T01:40:11;99130.28;;;2.72;100.00
65276;BME280;51875;49.994;14.052;2023-04-09T01:41:28;99125.41;;;2.95;100.00
65276;BME280;51875;49.994;14.052;2023-04-09T01:42:45;99123.72;;;2.95;100.00
65276;BME280;51875;49.994;14.052;2023-04-09T01:44:04;99120.28;;;2.96;100.00
65276;BME280;51875;49.994;14.052;2023-04-09T01:45:22;99117.72;;;3.00;100.00
65276;BME280;51875;49.994;14.052;2023-04-09T01:46:38;99120.31;;;3.00;100.00
65276;BME280;51875;49.994;14.052;2023-04-09T01:47:55;99128.75;;;2.86;100.00
65276;BME280;51875;49.994;14.052;2023-04-09T01:49:11;99124.31;;;2.77;100.00
65276;BME280;51875;49.994;14.052;2023-04-09T01:50:26;99125.94;;;2.71;100.00
65276;BME280;51875;49.994;14.052;2023-04-09T01:51:42;99134.50;;;2.66;100.00
65276;BME280;51875;49.994;14.052;2023-04-09T01:52:59;99124.84;;;2.53;100.00
65276;BME280;51875;49.994;14.052;2023-04-09T01:54:15;99122.94;;;2.43;100.00
65276;BME280;51875;49.994;14.052;2023-04-09T01:55:31;99131.38;;;2.32;100.00
65276;BME280;51875;49.994;14.052;2023-04-09T01:56:47;99130.53;;;2.33;100.00
65276;BME280;51875;49.994;14.052;2023-04-09T01:58:03;99131.84;;;2.09;100.00
65276;BME280;51875;49.994;14.052;2023-04-09T01:59:18;99139.69;;;2.13;100.00
65276;BME280;51875;49.994;14.052;2023-04-09T02:00:37;99126.16;;;2.29;100.00
65276;BME280;51875;49.994;14.052;2023-04-09T02:02:09;99133.00;;;2.25;100.00
65276;BME280;51875;49.994;14.052;2023-04-09T02:03:47;99120.50;;;2.52;100.00
65276;BME280;51875;49.994;14.052;2023-04-09T02:05:08;99128.50;;;2.67;100.00
65276;BME280;51875;49.994;14.052;2023-04-09T02:06:43;99122.81;;;2.92;100.00
65276;BME280;51875;49.994;14.052;2023-04-09T02:08:01;99129.00;;;3.05;100.00
65276;BME280;51875;49.994;14.052;2023-04-09T02:09:19;99138.53;;;3.07;100.00
65276;BME280;51875;49.994;14.052;2023-04-09T02:10:37;99134.97;;;2.99;100.00
65276;BME280;51875;49.994;14.052;2023-04-09T02:11:57;99138.56;;;3.10;100.00
65276;BME280;51875;49.994;14.052;2023-04-09T02:13:14;99128.97;;;3.02;100.00
65276;BME280;51875;49.994;14.052;2023-04-09T02:14:33;99139.91;;;2.82;100.00
65276;BME280;51875;49.994;14.052;2023-04-09T02:15:50;99136.88;;;3.11;100.00
65276;BME280;51875;49.994;14.052;2023-04-09T02:17:06;99141.25;;;3.18;100.00
65276;BME280;51875;49.994;14.052;2023-04-09T02:18:26;99148.19;;;3.21;100.00
65276;BME280;51875;49.994;14.052;2023-04-09T02:19:44;99142.25;;;3.30;100.00
65276;BME280;51875;49.994;14.052;2023-04-09T02:21:00;99144.81;;;3.27;100.00
65276;BME280;51875;49.994;14.052;2023-04-09T02:22:15;99137.16;;;3.34;100.00
65276;BME280;51875;49.994;14.052;2023-04-09T02:23:31;99130.28;;;3.36;100.00
65276;BME280;51875;49.994;14.052;2023-04-09T02:24:47;99129.34;;;3.33;100.00
65276;BME280;51875;49.994;14.052;2023-04-09T02:26:03;99131.97;;;3.34;100.00
65276;BME280;51875;49.994;14.052;2023-04-09T02:27:18;99130.75;;;3.06;100.00
65276;BME280;51875;49.994;14.052;2023-04-09T02:28:34;99132.44;;;3.04;100.00
65276;BME280;51875;49.994;14.052;2023-04-09T02:29:50;99137.81;;;3.18;100.00
65276;BME280;51875;49.994;14.052;2023-04-09T02:31:05;99139.72;;;3.31;100.00
65276;BME280;51875;49.994;14.052;2023-04-09T02:32:21;99138.84;;;3.34;100.00
65276;BME280;51875;49.994;14.052;2023-04-09T02:33:36;99142.38;;;3.37;100.00
65276;BME280;51875;49.994;14.052;2023-04-09T02:34:52;99135.50;;;3.41;100.00
65276;BME280;51875;49.994;14.052;2023-04-09T02:36:12;99131.16;;;3.37;100.00
65276;BME280;51875;49.994;14.052;2023-04-09T02:37:27;99133.53;;;3.20;100.00
65276;BME280;51875;49.994;14.052;2023-04-09T02:38:43;99133.59;;;3.24;100.00
65276;BME280;51875;49.994;14.052;2023-04-09T02:39:58;99138.09;;;3.41;100.00
65276;BME280;51875;49.994;14.052;2023-04-09T02:41:14;99136.41;;;3.43;100.00
65276;BME280;51875;49.994;14.052;2023-04-09T02:42:30;99136.38;;;3.40;100.00
65276;BME280;51875;49.994;14.052;2023-04-09T02:43:45;99139.88;;;3.45;100.00
65276;BME280;51875;49.994;14.052;2023-04-09T02:45:01;99134.69;;;3.45;100.00
65276;BME280;51875;49.994;14.052;2023-04-09T02:46:16;99139.78;;;3.36;100.00
65276;BME280;51875;49.994;14.052;2023-04-09T02:47:32;99139.72;;;3.33;100.00
65276;BME280;51875;49.994;14.052;2023-04-09T02:48:47;99144.50;;;3.02;100.00
65276;BME280;51875;49.994;14.052;2023-04-09T02:50:04;99134.25;;;3.09;100.00
65276;BME280;51875;49.994;14.052;2023-04-09T02:51:20;99132.63;;;3.19;100.00
65276;BME280;51875;49.994;14.052;2023-04-09T02:52:36;99132.75;;;3.25;100.00
65276;BME280;51875;49.994;14.052;2023-04-09T02:53:52;99132.81;;;3.33;100.00
65276;BME280;51875;49.994;14.052;2023-04-09T02:55:07;99135.41;;;3.33;100.00
65276;BME280;51875;49.994;14.052;2023-04-09T02:56:23;99134.53;;;3.33;100.00
65276;BME280;51875;49.994;14.052;2023-04-09T02:57:38;99131.16;;;3.37;100.00
65276;BME280;51875;49.994;14.052;2023-04-09T02:58:55;99127.56;;;3.27;100.00
65276;BME280;51875;49.994;14.052;2023-04-09T03:00:11;99126.84;;;3.37;100.00
65276;BME280;51875;49.994;14.052;2023-04-09T03:01:27;99126.91;;;3.44;100.00
65276;BME280;51875;49.994;14.052;2023-04-09T03:02:42;99125.97;;;3.37;100.00
65276;BME280;51875;49.994;14.052;2023-04-09T03:03:59;99121.44;;;3.19;100.00
65276;BME280;51875;49.994;14.052;2023-04-09T03:05:14;99118.97;;;3.30;100.00
65276;BME280;51875;49.994;14.052;2023-04-09T03:06:30;99123.47;;;3.45;100.00
65276;BME280;51875;49.994;14.052;2023-04-09T03:07:46;99127.75;;;3.41;100.00
65276;BME280;51875;49.994;14.052;2023-04-09T03:09:01;99126.88;;;3.41;100.00
65276;BME280;51875;49.994;14.052;2023-04-09T03:10:17;99125.97;;;3.38;100.00
65276;BME280;51875;49.994;14.052;2023-04-09T03:11:32;99125.91;;;3.32;100.00
65276;BME280;51875;49.994;14.052;2023-04-09T03:12:48;99124.25;;;3.37;100.00
65276;BME280;51875;49.994;14.052;2023-04-09T03:14:03;99128.63;;;3.43;100.00
65276;BME280;51875;49.994;14.052;2023-04-09T03:15:19;99122.41;;;3.29;100.00
65276;BME280;51875;49.994;14.052;2023-04-09T03:16:35;99118.03;;;3.21;100.00
65276;BME280;51875;49.994;14.052;2023-04-09T03:17:50;99118.22;;;3.38;100.00
65276;BME280;51875;49.994;14.052;2023-04-09T03:19:06;99118.66;;;3.05;100.00
65276;BME280;51875;49.994;14.052;2023-04-09T03:20:21;99113.66;;;3.20;100.00
65276;BME280;51875;49.994;14.052;2023-04-09T03:21:37;99112.75;;;3.15;100.00
65276;BME280;51875;49.994;14.052;2023-04-09T03:22:53;99114.75;;;3.36;100.00
65276;BME280;51875;49.994;14.052;2023-04-09T03:24:08;99115.81;;;3.54;100.00
65276;BME280;51875;49.994;14.052;2023-04-09T03:25:24;99110.69;;;3.59;100.00
65276;BME280;51875;49.994;14.052;2023-04-09T03:26:40;99113.09;;;3.43;100.00
65276;BME280;51875;49.994;14.052;2023-04-09T03:27:55;99116.59;;;3.48;100.00
65276;BME280;51875;49.994;14.052;2023-04-09T03:29:11;99107.81;;;3.34;100.00
65276;BME280;51875;49.994;14.052;2023-04-09T03:30:26;99110.63;;;3.52;100.00
65276;BME280;51875;49.994;14.052;2023-04-09T03:31:42;99107.88;;;3.38;100.00
65276;BME280;51875;49.994;14.052;2023-04-09T03:32:57;99107.16;;;3.52;100.00
65276;BME280;51875;49.994;14.052;2023-04-09T03:34:14;99112.19;;;3.39;100.00
65276;BME280;51875;49.994;14.052;2023-04-09T03:35:29;99106.84;;;3.27;100.00
65276;BME280;51875;49.994;14.052;2023-04-09T03:36:45;99103.69;;;3.50;100.00
65276;BME280;51875;49.994;14.052;2023-04-09T03:38:00;99106.22;;;3.44;100.00
65276;BME280;51875;49.994;14.052;2023-04-09T03:39:16;99105.41;;;3.49;100.00
65276;BME280;51875;49.994;14.052;2023-04-09T03:40:31;99100.91;;;3.34;100.00
65276;BME280;51875;49.994;14.052;2023-04-09T03:41:47;99106.94;;;3.35;100.00
65276;BME280;51875;49.994;14.052;2023-04-09T03:43:03;99111.38;;;3.42;100.00
65276;BME280;51875;49.994;14.052;2023-04-09T03:44:18;99105.34;;;3.43;100.00
65276;BME280;51875;49.994;14.052;2023-04-09T03:45:34;99108.94;;;3.58;100.00
65276;BME280;51875;49.994;14.052;2023-04-09T03:46:50;99111.59;;;3.62;100.00
65276;BME280;51875;49.994;14.052;2023-04-09T03:48:05;99105.50;;;3.59;100.00
65276;BME280;51875;49.994;14.052;2023-04-09T03:49:21;99110.66;;;3.56;100.00
65276;BME280;51875;49.994;14.052;2023-04-09T03:50:40;99111.63;;;3.64;100.00
65276;BME280;51875;49.994;14.052;2023-04-09T03:51:55;99108.16;;;3.66;100.00
65276;BME280;51875;49.994;14.052;2023-04-09T03:53:11;99112.53;;;3.69;100.00
65276;BME280;51875;49.994;14.052;2023-04-09T03:54:30;99106.34;;;3.58;100.00
65276;BME280;51875;49.994;14.052;2023-04-09T03:55:45;99114.16;;;3.61;100.00
65276;BME280;51875;49.994;14.052;2023-04-09T03:57:01;99117.59;;;3.60;100.00
65276;BME280;51875;49.994;14.052;2023-04-09T03:58:18;99111.50;;;3.55;100.00
65276;BME280;51875;49.994;14.052;2023-04-09T03:59:34;99107.09;;;3.47;100.00
65276;BME280;51875;49.994;14.052;2023-04-09T04:00:49;99114.13;;;3.58;100.00
65276;BME280;51875;49.994;14.052;2023-04-09T04:02:05;99110.78;;;3.68;100.00
65276;BME280;51875;49.994;14.052;2023-04-09T04:03:20;99111.50;;;3.56;100.00
65276;BME280;51875;49.994;14.052;2023-04-09T04:04:36;99110.47;;;3.40;100.00
65276;BME280;51875;49.994;14.052;2023-04-09T04:05:52;99111.38;;;3.42;100.00
65276;BME280;51875;49.994;14.052;2023-04-09T04:07:07;99108.03;;;3.54;100.00
65276;BME280;51875;49.994;14.052;2023-04-09T04:08:22;99114.13;;;3.58;100.00
65276;BME280;51875;49.994;14.052;2023-04-09T04:09:38;99113.34;;;3.65;100.00
65276;BME280;51875;49.994;14.052;2023-04-09T04:10:54;99117.72;;;3.72;100.00
65276;BME280;51875;49.994;14.052;2023-04-09T04:12:10;99117.69;;;3.67;100.00
65276;BME280;51875;49.994;14.052;2023-04-09T04:13:25;99112.44;;;3.63;100.00
65276;BME280;51875;49.994;14.052;2023-04-09T04:14:41;99117.81;;;3.80;100.00
65276;BME280;51875;49.994;14.052;2023-04-09T04:15:56;99119.44;;;3.70;100.00
65276;BME280;51875;49.994;14.052;2023-04-09T04:17:12;99118.44;;;3.57;100.00
65276;BME280;51875;49.994;14.052;2023-04-09T04:18:27;99119.41;;;3.67;100.00
65276;BME280;51875;49.994;14.052;2023-04-09T04:19:43;99126.28;;;3.63;100.00
65276;BME280;51875;49.994;14.052;2023-04-09T04:20:59;99118.53;;;3.66;100.00
65276;BME280;51875;49.994;14.052;2023-04-09T04:22:14;99121.25;;;3.79;100.00
65276;BME280;51875;49.994;14.052;2023-04-09T04:23:30;99122.91;;;3.72;100.00
65276;BME280;51875;49.994;14.052;2023-04-09T04:24:45;99122.97;;;3.77;100.00
65276;BME280;51875;49.994;14.052;2023-04-09T04:26:06;99123.88;;;3.80;100.00
65276;BME280;51875;49.994;14.052;2023-04-09T04:27:24;99124.50;;;3.61;100.00
65276;BME280;51875;49.994;14.052;2023-04-09T04:28:40;99125.50;;;3.71;100.00
65276;BME280;51875;49.994;14.052;2023-04-09T04:29:57;99127.41;;;3.87;100.00
65276;BME280;51875;49.994;14.052;2023-04-09T04:31:16;99133.44;;;3.88;100.00
65276;BME280;51875;49.994;14.052;2023-04-09T04:32:31;99123.84;;;3.79;100.00
65276;BME280;51875;49.994;14.052;2023-04-09T04:33:47;99124.72;;;3.79;100.00
65276;BME280;51875;49.994;14.052;2023-04-09T04:35:03;99125.69;;;3.89;100.00
65276;BME280;51875;49.994;14.052;2023-04-09T04:36:18;99124.72;;;3.79;100.00
65276;BME280;51875;49.994;14.052;2023-04-09T04:37:34;99126.59;;;3.93;100.00
65276;BME280;51875;49.994;14.052;2023-04-09T04:38:49;99128.22;;;3.85;100.00
65276;BME280;51875;49.994;14.052;2023-04-09T04:40:06;99130.72;;;3.74;100.00
65276;BME280;51875;49.994;14.052;2023-04-09T04:41:22;99128.13;;;3.75;100.00
65276;BME280;51875;49.994;14.052;2023-04-09T04:42:37;99127.28;;;3.78;100.00
65276;BME280;51875;49.994;14.052;2023-04-09T04:43:53;99136.84;;;3.84;100.00
65276;BME280;51875;49.994;14.052;2023-04-09T04:45:09;99131.78;;;3.93;100.00
65276;BME280;51875;49.994;14.052;2023-04-09T04:46:24;99129.84;;;3.76;100.00
65276;BME280;51875;49.994;14.052;2023-04-09T04:47:40;99122.91;;;3.71;100.00
65276;BME280;51875;49.994;14.052;2023-04-09T04:48:58;99126.13;;;3.51;100.00
65276;BME280;51875;49.994;14.052;2023-04-09T04:50:35;99125.28;;;3.52;100.00
65276;BME280;51875;49.994;14.052;2023-04-09T04:51:50;99125.38;;;3.61;100.00
65276;BME280;51875;49.994;14.052;2023-04-09T04:53:08;99121.84;;;3.51;100.00
65276;BME280;51875;49.994;14.052;2023-04-09T04:54:26;99124.44;;;3.55;100.00
65276;BME280;51875;49.994;14.052;2023-04-09T04:55:45;99127.16;;;3.65;100.00
65276;BME280;51875;49.994;14.052;2023-04-09T04:57:01;99132.44;;;3.75;100.00
65276;BME280;51875;49.994;14.052;2023-04-09T04:58:17;99128.25;;;3.88;100.00
65276;BME280;51875;49.994;14.052;2023-04-09T04:59:32;99134.31;;;3.90;100.00
65276;BME280;51875;49.994;14.052;2023-04-09T05:00:51;99141.94;;;3.76;100.00
65276;BME280;51875;49.994;14.052;2023-04-09T05:02:06;99147.56;;;3.39;100.00
65276;BME280;51875;49.994;14.052;2023-04-09T05:03:22;99146.19;;;3.69;100.00
65276;BME280;51875;49.994;14.052;2023-04-09T05:04:38;99140.09;;;3.65;100.00
65276;BME280;51875;49.994;14.052;2023-04-09T05:05:53;99142.84;;;3.79;100.00
65276;BME280;51875;49.994;14.052;2023-04-09T05:07:09;99152.44;;;3.90;100.00
65276;BME280;51875;49.994;14.052;2023-04-09T05:08:25;99144.69;;;3.91;100.00
65276;BME280;51875;49.994;14.052;2023-04-09T05:09:40;99147.50;;;4.15;100.00
65276;BME280;51875;49.994;14.052;2023-04-09T05:10:57;99142.34;;;4.13;100.00
65276;BME280;51875;49.994;14.052;2023-04-09T05:12:12;99142.34;;;4.18;100.00
65276;BME280;51875;49.994;14.052;2023-04-09T05:13:29;99146.63;;;4.13;100.00
65276;BME280;51875;49.994;14.052;2023-04-09T05:14:44;99145.88;;;4.23;100.00
65276;BME280;51875;49.994;14.052;2023-04-09T05:16:00;99148.47;;;4.23;100.00
65276;BME280;51875;49.994;14.052;2023-04-09T05:17:16;99148.38;;;4.17;100.00
65276;BME280;51875;49.994;14.052;2023-04-09T05:18:32;99155.31;;;4.18;100.00
65276;BME280;51875;49.994;14.052;2023-04-09T05:19:51;99149.06;;;3.97;100.00
65276;BME280;51875;49.994;14.052;2023-04-09T05:21:07;99147.44;;;4.05;100.00
65276;BME280;51875;49.994;14.052;2023-04-09T05:22:22;99151.84;;;4.16;100.00
65276;BME280;51875;49.994;14.052;2023-04-09T05:23:38;99150.88;;;4.06;100.00
65276;BME280;51875;49.994;14.052;2023-04-09T05:24:54;99156.09;;;4.07;100.00
65276;BME280;51875;49.994;14.052;2023-04-09T05:26:09;99152.66;;;4.10;100.00
65276;BME280;51875;49.994;14.052;2023-04-09T05:27:25;99148.44;;;4.21;100.00
65276;BME280;51875;49.994;14.052;2023-04-09T05:28:41;99145.66;;;4.01;100.00
65276;BME280;51875;49.994;14.052;2023-04-09T05:29:57;99153.44;;;4.04;100.00
65276;BME280;51875;49.994;14.052;2023-04-09T05:31:13;99150.84;;;4.01;100.00
65276;BME280;51875;49.994;14.052;2023-04-09T05:32:29;99152.44;;;3.88;100.00
65276;BME280;51875;49.994;14.052;2023-04-09T05:33:45;99151.63;;;3.92;100.00
65276;BME280;51875;49.994;14.052;2023-04-09T05:35:01;99145.47;;;3.84;100.00
65276;BME280;51875;49.994;14.052;2023-04-09T05:36:17;99148.88;;;3.80;100.00
65276;BME280;51875;49.994;14.052;2023-04-09T05:37:32;99145.69;;;4.04;100.00
65276;BME280;51875;49.994;14.052;2023-04-09T05:38:48;99152.56;;;4.01;100.00
65276;BME280;51875;49.994;14.052;2023-04-09T05:40:04;99148.22;;;3.98;100.00
65276;BME280;51875;49.994;14.052;2023-04-09T05:41:20;99146.38;;;3.88;100.00
65276;BME280;51875;49.994;14.052;2023-04-09T05:42:35;99138.75;;;3.99;100.00
65276;BME280;51875;49.994;14.052;2023-04-09T05:43:51;99150.03;;;4.05;100.00
65276;BME280;51875;49.994;14.052;2023-04-09T05:45:07;99141.53;;;4.22;100.00
65276;BME280;51875;49.994;14.052;2023-04-09T05:46:23;99144.97;;;4.19;100.00
65276;BME280;51875;49.994;14.052;2023-04-09T05:47:39;99152.72;;;4.18;100.00
65276;BME280;51875;49.994;14.052;2023-04-09T05:48:54;99148.38;;;4.17;100.00
65276;BME280;51875;49.994;14.052;2023-04-09T05:50:10;99141.34;;;3.99;100.00
65276;BME280;51875;49.994;14.052;2023-04-09T05:51:26;99147.59;;;4.21;100.00
65276;BME280;51875;49.994;14.052;2023-04-09T05:52:41;99138.88;;;4.14;100.00
65276;BME280;51875;49.994;14.052;2023-04-09T05:53:57;99148.38;;;4.14;100.00
65276;BME280;51875;49.994;14.052;2023-04-09T05:55:13;99152.75;;;4.22;100.00
65276;BME280;51875;49.994;14.052;2023-04-09T05:56:29;99149.47;;;4.37;100.00
65276;BME280;51875;49.994;14.052;2023-04-09T05:57:45;99151.22;;;4.40;100.00
65276;BME280;51875;49.994;14.052;2023-04-09T05:59:01;99153.81;;;4.45;100.00
65276;BME280;51875;49.994;14.052;2023-04-09T06:00:16;99158.16;;;4.46;100.00
65276;BME280;51875;49.994;14.052;2023-04-09T06:01:32;99150.41;;;4.50;100.00
65276;BME280;51875;49.994;14.052;2023-04-09T06:02:48;99156.34;;;4.37;100.00
65276;BME280;51875;49.994;14.052;2023-04-09T06:04:06;99149.63;;;4.58;100.00
65276;BME280;51875;49.994;14.052;2023-04-09T06:05:21;99145.25;;;4.53;100.00
65276;BME280;51875;49.994;14.052;2023-04-09T06:06:37;99146.13;;;4.54;100.00
65276;BME280;51875;49.994;14.052;2023-04-09T06:07:53;99147.91;;;4.63;100.00
65276;BME280;51875;49.994;14.052;2023-04-09T06:09:08;99139.31;;;4.69;100.00
65276;BME280;51875;49.994;14.052;2023-04-09T06:10:24;99146.13;;;4.54;100.00
65276;BME280;51875;49.994;14.052;2023-04-09T06:11:40;99144.34;;;4.48;100.00
65276;BME280;51875;49.994;14.052;2023-04-09T06:12:55;99144.47;;;4.67;100.00
65276;BME280;51875;49.994;14.052;2023-04-09T06:14:11;99160.94;;;4.69;100.00
65276;BME280;51875;49.994;14.052;2023-04-09T06:15:30;99161.84;;;4.77;100.00
65276;BME280;51875;49.994;14.052;2023-04-09T06:16:46;99157.63;;;4.90;100.00
65276;BME280;51875;49.994;14.052;2023-04-09T06:18:01;99151.44;;;4.70;100.00
65276;BME280;51875;49.994;14.052;2023-04-09T06:19:21;99154.09;;;4.76;100.00
65276;BME280;51875;49.994;14.052;2023-04-09T06:20:36;99156.81;;;5.01;100.00
65276;BME280;51875;49.994;14.052;2023-04-09T06:21:52;99161.91;;;4.85;100.00
65276;BME280;51875;49.994;14.052;2023-04-09T06:23:07;99160.16;;;4.78;100.00
65276;BME280;51875;49.994;14.052;2023-04-09T06:24:23;99161.84;;;4.74;100.00
65276;BME280;51875;49.994;14.052;2023-04-09T06:25:39;99162.69;;;4.75;100.00
65276;BME280;51875;49.994;14.052;2023-04-09T06:26:54;99160.22;;;4.90;100.00
65276;BME280;51875;49.994;14.052;2023-04-09T06:28:10;99166.31;;;4.95;100.00
65276;BME280;51875;49.994;14.052;2023-04-09T06:29:26;99167.06;;;4.79;100.00
65276;BME280;51875;49.994;14.052;2023-04-09T06:30:42;99166.34;;;5.00;100.00
65276;BME280;51875;49.994;14.052;2023-04-09T06:31:58;99166.28;;;4.94;100.00
65276;BME280;51875;49.994;14.052;2023-04-09T06:33:14;99164.59;;;4.99;100.00
65276;BME280;51875;49.994;14.052;2023-04-09T06:34:30;99161.00;;;4.81;100.00
65276;BME280;51875;49.994;14.052;2023-04-09T06:35:46;99172.28;;;4.85;100.00
65276;BME280;51875;49.994;14.052;2023-04-09T06:37:02;99161.81;;;4.73;100.00
65276;BME280;51875;49.994;14.052;2023-04-09T06:38:17;99170.63;;;4.93;100.00
65276;BME280;51875;49.994;14.052;2023-04-09T06:39:33;99174.09;;;4.95;100.00
65276;BME280;51875;49.994;14.052;2023-04-09T06:40:49;99177.56;;;4.96;100.00
65276;BME280;51875;49.994;14.052;2023-04-09T06:42:04;99174.78;;;4.73;100.00
65276;BME280;51875;49.994;14.052;2023-04-09T06:43:20;99179.25;;;4.94;100.00
65276;BME280;51875;49.994;14.052;2023-04-09T06:44:36;99182.72;;;4.93;100.00
65276;BME280;51875;49.994;14.052;2023-04-09T06:45:51;99175.81;;;4.90;100.00
65276;BME280;51875;49.994;14.052;2023-04-09T06:47:07;99188.78;;;4.95;100.00
65276;BME280;51875;49.994;14.052;2023-04-09T06:48:23;99185.28;;;4.84;100.00